Time;durP1;ratioP1;P1;durP2;ratioP2;P2;SDS_P1;SDS_P2;PMS_P1;PMS_P2;Temp;Humidity;BMP_temperature;BMP_pressure;BME280_temperature;BME280_humidity;BME280_pressure;Samples;Min_cycle;Max_cycle;Signal;HPM_P1;HPM_P2
2022/12/17 13:07:45;;;;;;;52.90;40.23;;;-0.50;97.80;;;;;;10407926;28;20235;-79
2022/12/17 13:12:49;;;;;;;47.73;39.53;;;-0.50;98.70;;;;;;10420664;28;20601;-80
2022/12/17 13:18:05;;;;;;;49.10;39.27;;;-0.40;99.40;;;;;;10436158;28;20209;-79
2022/12/17 13:23:17;;;;;;;51.13;41.97;;;-0.30;99.60;;;;;;10444247;28;20186;-78
2022/12/17 13:28:31;;;;;;;53.37;43.03;;;-0.20;99.30;;;;;;10427405;28;20263;-79
2022/12/17 13:33:42;;;;;;;52.13;42.40;;;0.00;99.90;;;;;;10448688;28;20202;-78
2022/12/17 13:38:54;;;;;;;52.83;42.47;;;0.10;98.80;;;;;;10411752;28;20271;-79
2022/12/17 13:44:02;;;;;;;50.33;41.20;;;0.20;98.40;;;;;;10440743;28;20198;-80
2022/12/17 13:49:16;;;;;;;50.13;40.90;;;0.20;98.20;;;;;;10416220;28;20244;-80
2022/12/17 13:54:19;;;;;;;52.30;40.33;;;0.20;97.50;;;;;;10462723;28;20196;-80
2022/12/17 13:59:24;;;;;;;55.93;42.57;;;0.10;97.90;;;;;;10400873;28;20228;-80
2022/12/17 14:04:28;;;;;;;58.93;45.30;;;0.00;98.20;;;;;;10420417;28;20669;-79
2022/12/17 14:09:33;;;;;;;53.70;43.63;;;0.00;97.90;;;;;;10408321;28;20650;-80
2022/12/17 14:14:41;;;;;;;65.43;48.47;;;0.00;97.00;;;;;;10455138;28;20658;-80
2022/12/17 14:19:43;;;;;;;59.13;46.87;;;-0.30;97.00;;;;;;10411367;28;20217;-80
2022/12/17 14:24:46;;;;;;;62.90;46.67;;;-0.50;97.10;;;;;;10461600;28;20252;-80
2022/12/17 14:29:49;;;;;;;59.17;45.20;;;-0.60;98.20;;;;;;10435186;28;20248;-80
2022/12/17 14:34:51;;;;;;;59.90;46.60;;;-0.60;98.30;;;;;;10438928;28;20272;-80
2022/12/17 14:40:00;;;;;;;58.07;43.63;;;-0.70;98.10;;;;;;10445113;28;20209;-80
2022/12/17 14:45:07;;;;;;;62.43;47.40;;;-0.70;98.10;;;;;;10435571;28;20276;-80
2022/12/17 14:50:26;;;;;;;51.90;41.97;;;-0.70;98.40;;;;;;10434408;28;20303;-79
2022/12/17 14:55:32;;;;;;;49.20;40.43;;;-0.60;98.20;;;;;;10433073;28;20279;-80
2022/12/17 15:00:38;;;;;;;51.87;41.57;;;-0.60;97.70;;;;;;10435471;28;20252;-80
2022/12/17 15:05:40;;;;;;;51.37;39.57;;;-0.60;97.60;;;;;;10393277;28;20217;-80
2022/12/17 15:10:42;;;;;;;48.83;40.20;;;-0.70;98.20;;;;;;10459763;28;20217;-81
2022/12/17 15:15:46;;;;;;;47.33;38.97;;;-0.70;97.40;;;;;;10453900;28;20193;-81
2022/12/17 15:20:48;;;;;;;49.23;40.83;;;-0.80;97.80;;;;;;10451169;28;20229;-81
2022/12/17 15:25:52;;;;;;;48.10;38.70;;;-0.80;97.60;;;;;;10422688;28;20224;-80
2022/12/17 15:30:55;;;;;;;46.50;37.50;;;-0.80;98.00;;;;;;10431723;28;20225;-80
2022/12/17 15:35:58;;;;;;;49.00;38.83;;;-0.90;97.60;;;;;;10429098;28;20185;-80
2022/12/17 15:43:09;;;;;;;61.30;52.40;;;-0.90;97.30;;;;;;10437621;28;20221;-80
2022/12/17 15:46:24;;;;;;;44.37;37.27;;;-1.00;97.90;;;;;;10408307;28;20211;-80
2022/12/17 15:51:27;;;;;;;67.63;50.33;;;-1.00;97.60;;;;;;10434116;28;20217;-80
2022/12/17 15:56:29;;;;;;;45.97;38.20;;;-1.10;97.30;;;;;;10445535;28;20664;-80
2022/12/17 16:01:32;;;;;;;45.93;39.20;;;-1.20;97.30;;;;;;10450241;28;20224;-80
2022/12/17 16:06:34;;;;;;;52.63;44.03;;;-1.20;97.50;;;;;;10454555;28;20232;-80
2022/12/17 16:11:36;;;;;;;51.03;39.50;;;-1.30;97.20;;;;;;10416027;28;20221;-81
2022/12/17 16:16:40;;;;;;;49.40;39.87;;;-1.40;98.20;;;;;;10436902;28;20216;-80
2022/12/17 16:21:45;;;;;;;53.73;39.93;;;-1.40;97.10;;;;;;10416736;28;20312;-80
2022/12/17 16:26:47;;;;;;;50.80;37.97;;;-1.40;96.30;;;;;;10448786;28;20603;-80
2022/12/17 16:31:50;;;;;;;56.33;43.00;;;-1.50;96.50;;;;;;10458419;28;20222;-80
2022/12/17 16:36:52;;;;;;;51.67;40.57;;;-1.70;96.60;;;;;;10434754;28;20193;-79
2022/12/17 16:41:54;;;;;;;51.50;39.23;;;-1.70;96.40;;;;;;10457627;28;20237;-79
2022/12/17 16:46:58;;;;;;;51.03;39.03;;;-1.90;96.70;;;;;;10417371;28;20244;-80
2022/12/17 16:52:01;;;;;;;51.07;38.13;;;-2.00;96.70;;;;;;10454337;28;20301;-79
2022/12/17 16:57:03;;;;;;;54.43;40.07;;;-2.00;97.70;;;;;;10418820;28;20219;-78
2022/12/17 17:02:12;;;;;;;55.37;39.83;;;-2.00;98.00;;;;;;10465117;28;20197;-79
2022/12/17 17:07:14;;;;;;;66.77;44.53;;;-1.90;97.40;;;;;;10414643;28;20216;-79
2022/12/17 17:12:16;;;;;;;68.13;45.07;;;-1.90;97.00;;;;;;10459256;28;20200;-79
2022/12/17 17:17:19;;;;;;;62.63;45.13;;;-1.90;97.70;;;;;;10415914;28;20177;-80
2022/12/17 17:22:21;;;;;;;58.07;45.80;;;-1.80;98.00;;;;;;10463667;28;20253;-80
2022/12/17 17:27:23;;;;;;;67.03;45.97;;;-1.80;97.50;;;;;;10448051;28;20298;-79
2022/12/17 17:32:28;;;;;;;57.80;42.30;;;-1.70;96.80;;;;;;10409087;28;20263;-79
2022/12/17 17:37:30;;;;;;;60.87;43.63;;;-1.80;96.70;;;;;;10460331;28;20256;-78
2022/12/17 17:42:32;;;;;;;56.00;42.43;;;-1.80;97.30;;;;;;10425994;28;20632;-79
2022/12/17 17:47:36;;;;;;;56.40;41.90;;;-1.80;96.50;;;;;;10444899;28;20224;-79
2022/12/17 17:52:38;;;;;;;58.47;40.53;;;-1.90;96.80;;;;;;10461591;28;20197;-80
2022/12/17 17:57:40;;;;;;;61.37;45.70;;;-1.90;97.80;;;;;;10455146;28;20513;-79
2022/12/17 18:02:43;;;;;;;55.77;44.10;;;-1.80;98.30;;;;;;10458228;28;20196;-79
2022/12/17 18:07:48;;;;;;;63.80;49.57;;;-1.80;97.20;;;;;;10404981;28;20220;-79
2022/12/17 18:18:11;;;;;;;59.00;44.07;;;-1.70;96.70;;;;;;10444561;28;20225;-79
2022/12/17 18:23:13;;;;;;;61.37;46.87;;;-1.80;96.20;;;;;;10408952;28;20196;-79
2022/12/17 18:28:15;;;;;;;58.73;43.20;;;-1.80;96.90;;;;;;10443318;28;20224;-78
2022/12/17 18:33:19;;;;;;;71.73;54.07;;;-1.80;96.70;;;;;;10458732;28;20190;-79
2022/12/17 18:38:21;;;;;;;67.80;49.13;;;-1.80;96.50;;;;;;10423382;28;20425;-80
2022/12/17 18:43:23;;;;;;;63.23;45.23;;;-1.80;96.90;;;;;;10439063;28;20263;-79
2022/12/17 18:48:26;;;;;;;65.00;47.83;;;-1.80;96.40;;;;;;10427033;28;20245;-79
2022/12/17 18:53:28;;;;;;;71.40;46.60;;;-1.80;96.50;;;;;;10421826;28;20198;-80
2022/12/17 18:58:30;;;;;;;73.30;47.60;;;-1.80;96.30;;;;;;10458485;22;20665;-81
2022/12/17 19:03:34;;;;;;;66.97;49.17;;;-1.80;96.70;;;;;;10386241;28;20447;-80
2022/12/17 19:08:36;;;;;;;69.63;47.17;;;-1.80;96.40;;;;;;10422549;28;20783;-81
2022/12/17 19:13:39;;;;;;;66.83;48.13;;;-1.80;97.30;;;;;;10412034;28;20229;-81
2022/12/17 19:18:42;;;;;;;80.83;54.73;;;-1.80;96.80;;;;;;10434311;28;20535;-81
2022/12/17 19:23:45;;;;;;;81.73;55.57;;;-1.80;95.90;;;;;;10409845;28;20195;-82
2022/12/17 19:28:48;;;;;;;80.60;50.97;;;-1.90;96.40;;;;;;10428939;28;20667;-82
2022/12/17 19:33:55;;;;;;;73.67;51.80;;;-1.80;97.60;;;;;;10414736;28;20597;-82
2022/12/17 19:38:59;;;;;;;68.10;48.57;;;-1.80;97.10;;;;;;10431763;28;20206;-82
2022/12/17 19:44:03;;;;;;;71.97;50.00;;;-1.80;96.30;;;;;;10445370;28;20258;-81
2022/12/17 19:49:09;;;;;;;72.50;48.87;;;-1.80;96.70;;;;;;10414553;28;20686;-81
2022/12/17 19:54:13;;;;;;;64.10;47.63;;;-1.80;96.10;;;;;;10398152;28;20206;-82
2022/12/17 19:59:15;;;;;;;62.33;46.90;;;-1.80;96.70;;;;;;10433528;28;20730;-82
2022/12/17 20:04:19;;;;;;;72.17;49.77;;;-1.80;96.10;;;;;;10443147;28;20193;-81
2022/12/17 20:09:21;;;;;;;72.80;49.17;;;-1.80;96.20;;;;;;10387731;28;20222;-81
2022/12/17 20:14:30;;;;;;;70.00;49.43;;;-1.90;96.20;;;;;;10428685;28;20194;-82
2022/12/17 20:19:34;;;;;;;66.33;47.23;;;-1.90;96.40;;;;;;10382994;28;20211;-81
2022/12/17 20:24:38;;;;;;;73.87;49.60;;;-1.90;96.10;;;;;;10423952;28;20197;-81
2022/12/17 20:29:40;;;;;;;70.27;47.40;;;-1.90;96.20;;;;;;10405459;28;20236;-81
2022/12/17 20:34:43;;;;;;;66.43;45.33;;;-2.00;95.90;;;;;;10421895;28;20288;-82
2022/12/17 20:39:45;;;;;;;67.13;45.70;;;-2.00;96.10;;;;;;10423574;28;20229;-81
2022/12/17 20:44:47;;;;;;;73.13;47.83;;;-2.00;96.30;;;;;;10427465;28;20194;-82
2022/12/17 20:49:51;;;;;;;68.07;48.67;;;-2.00;96.10;;;;;;10410457;28;20224;-81
2022/12/17 20:54:53;;;;;;;67.60;48.57;;;-2.00;95.70;;;;;;10433291;28;20204;-81
2022/12/17 20:59:55;;;;;;;64.70;48.40;;;-2.10;96.20;;;;;;10422185;28;20708;-82
2022/12/17 21:04:58;;;;;;;68.60;44.03;;;-2.10;96.00;;;;;;10420804;28;20436;-81
2022/12/17 21:10:00;;;;;;;64.00;44.73;;;-2.10;96.00;;;;;;10422471;28;20222;-81
2022/12/17 21:15:03;;;;;;;59.90;42.50;;;-2.10;96.30;;;;;;10387106;28;20490;-82
2022/12/17 21:20:07;;;;;;;67.30;45.43;;;-2.10;94.90;;;;;;10421163;28;20510;-81
2022/12/17 21:25:09;;;;;;;65.83;46.83;;;-2.20;94.90;;;;;;10404371;28;20261;-81
2022/12/17 21:30:16;;;;;;;69.03;47.17;;;-2.30;95.20;;;;;;10423376;28;20221;-81
2022/12/17 21:35:19;;;;;;;68.70;46.50;;;-2.30;95.60;;;;;;10426114;28;20202;-81
2022/12/17 21:40:21;;;;;;;65.70;46.70;;;-2.40;95.60;;;;;;10426385;28;20464;-81
2022/12/17 21:45:23;;;;;;;63.97;44.47;;;-2.40;94.60;;;;;;10423601;28;20246;-81
2022/12/17 21:50:27;;;;;;;60.87;42.63;;;-2.40;95.40;;;;;;10419636;28;20244;-81
2022/12/17 21:55:29;;;;;;;74.77;47.47;;;-2.50;95.10;;;;;;10418462;28;20621;-81
2022/12/17 22:00:31;;;;;;;60.83;45.50;;;-2.50;94.90;;;;;;10400495;28;20228;-81
2022/12/17 22:05:37;;;;;;;67.53;46.37;;;-2.60;95.50;;;;;;10417748;28;20436;-81
2022/12/17 22:10:41;;;;;;;60.40;43.43;;;-2.60;95.90;;;;;;10415116;28;20453;-81
2022/12/17 22:15:43;;;;;;;61.23;44.33;;;-2.60;95.90;;;;;;10417669;28;20447;-81
2022/12/17 22:20:56;;;;;;;58.50;42.50;;;-2.50;95.20;;;;;;10382214;28;20583;-81
2022/12/17 22:25:58;;;;;;;54.40;37.87;;;-2.50;95.20;;;;;;10397961;28;20483;-81
2022/12/17 22:36:25;;;;;;;58.43;40.67;;;-2.50;95.50;;;;;;10432767;28;20186;-81
2022/12/17 22:46:47;;;;;;;64.70;42.43;;;-2.50;96.10;;;;;;10397544;28;20700;-81
2022/12/17 22:51:50;;;;;;;57.07;41.17;;;-2.50;95.50;;;;;;10424786;28;20491;-81
2022/12/17 22:56:52;;;;;;;61.37;40.90;;;-2.50;95.60;;;;;;10425621;28;20232;-81
2022/12/17 23:01:54;;;;;;;54.93;38.17;;;-2.50;94.40;;;;;;10425073;28;20481;-82
2022/12/17 23:06:58;;;;;;;102.40;50.47;;;-2.60;94.60;;;;;;10409114;28;21033;-81
2022/12/17 23:12:49;;;;;;;54.90;37.87;;;-2.70;95.30;;;;;;10409967;28;20304;-81
2022/12/17 23:17:22;;;;;;;74.63;37.90;;;-2.70;95.60;;;;;;10414078;28;20436;-81
2022/12/17 23:22:26;;;;;;;57.43;37.30;;;-2.70;95.80;;;;;;10393484;28;20464;-81
2022/12/17 23:27:28;;;;;;;51.67;39.60;;;-2.70;95.60;;;;;;10428372;28;20472;-82
2022/12/17 23:32:31;;;;;;;53.27;37.77;;;-2.70;95.90;;;;;;10413540;28;20948;-82
2022/12/17 23:37:34;;;;;;;55.00;36.70;;;-2.60;94.70;;;;;;10421468;28;20508;-82
2022/12/17 23:42:36;;;;;;;52.20;39.40;;;-2.70;95.60;;;;;;10436594;28;20190;-81
2022/12/17 23:47:39;;;;;;;56.27;39.27;;;-2.70;95.70;;;;;;10433796;28;20462;-82
2022/12/17 23:52:43;;;;;;;49.70;36.40;;;-2.60;96.00;;;;;;10428626;28;20464;-82
2022/12/17 23:57:45;;;;;;;58.77;40.43;;;-2.60;95.60;;;;;;10424657;28;20927;-81
